Погода Арагарсасна неделю

Гояс, Бразилия

25 - 31 июля
  • 25июля
    Сегодня
    +16°
    +34°
    Ясно и безоблачно
    ВремяПогодаТемператураВлажностьДавлениеВетер, м/сВероятность осадков
    02:00Ясно и безоблачно+21°C46 %738 мм0.8 м/с5 %
    05:00Ясно и безоблачно+17°C60 %738 мм1.8 м/с5 %
    08:00Ясно и безоблачно+22°C51 %740 мм0.6 м/с5 %
    11:00Ясно и безоблачно+32°C27 %740 мм1.7 м/с5 %
    14:00Ясно и безоблачно+34°C23 %737 мм0.7 м/с5 %
    17:00Ясно и безоблачно+30°C35 %737 мм1.9 м/с5 %
    20:00Ясно и безоблачно+25°C48 %737 мм0.4 м/с5 %
    23:00Ясно и безоблачно+23°C47 %737 мм1.2 м/с5 %
  • 26июля
    Пятница
    +15°
    +34°
    Ясно и безоблачно
    ВремяПогодаТемператураВлажностьДавлениеВетер, м/сВероятность осадков
    02:00Ясно и безоблачно+21°C47 %736 мм0.6 м/с5 %
    05:00Ясно и безоблачно+19°C55 %736 мм1.0 м/с5 %
    08:00Ясно и безоблачно+23°C47 %739 мм0.6 м/с5 %
    11:00Ясно и безоблачно+31°C29 %739 мм3.0 м/с5 %
    14:00Ясно и безоблачно+34°C24 %736 мм0.7 м/с5 %
    17:00Ясно и безоблачно+30°C38 %736 мм1.6 м/с5 %
    20:00Практически безоблачно+25°C38 %737 мм0.4 м/с5 %
    23:00Практически безоблачно+24°C37 %737 мм0.5 м/с5 %
  • 27июля
    Суббота
    +15°
    +35°
    Ясно и безоблачно
    ВремяПогодаТемператураВлажностьДавлениеВетер, м/сВероятность осадков
    02:00Ясно и безоблачно+19°C56 %735 мм1.5 м/с5 %
    05:00Ясно и безоблачно+17°C58 %736 мм1.4 м/с5 %
    08:00Ясно и безоблачно+23°C47 %738 мм0.6 м/с5 %
    11:00Ясно и безоблачно+32°C26 %739 мм2.2 м/с5 %
    14:00Ясно и безоблачно+35°C23 %737 мм0.7 м/с5 %
    17:00Ясно и безоблачно+30°C38 %737 мм1.8 м/с5 %
    20:00Ясно и безоблачно+25°C49 %737 мм0.4 м/с5 %
    23:00Ясно и безоблачно+25°C45 %738 мм1.1 м/с5 %
  • 28июля
    Воскресенье
    +17°
    +36°
    Ясно и безоблачно
    ВремяПогодаТемператураВлажностьДавлениеВетер, м/сВероятность осадков
    02:00Ясно и безоблачно+21°C50 %736 мм1.9 м/с5 %
    05:00Ясно и безоблачно+18°C62 %737 мм2.0 м/с5 %
    08:00Ясно и безоблачно+23°C46 %739 мм0.6 м/с5 %
    11:00Ясно и безоблачно+33°C25 %739 мм1.9 м/с5 %
    14:00Ясно и безоблачно+35°C24 %737 мм0.7 м/с5 %
    17:00Ясно и безоблачно+31°C37 %737 мм1.7 м/с5 %
    20:00Ясно и безоблачно+26°C45 %738 мм0.4 м/с5 %
    23:00Ясно и безоблачно+24°C45 %738 мм1.1 м/с5 %
Мы используем cookies
Соглашаюсь